createdAt,value
2024-02-02T00:00:43.608Z,3.92
2024-02-02T00:01:43.519Z,3.86
2024-02-02T00:02:43.494Z,3.84
2024-02-02T00:03:43.564Z,3.78
2024-02-02T00:04:43.477Z,3.71
2024-02-02T00:05:43.496Z,3.68
2024-02-02T00:06:43.511Z,3.62
2024-02-02T00:07:43.447Z,3.56
2024-02-02T00:08:43.434Z,3.49
2024-02-02T00:09:43.467Z,3.42
2024-02-02T00:10:43.442Z,3.37
2024-02-02T00:11:43.418Z,3.33
2024-02-02T00:12:44.266Z,3.30
2024-02-02T00:13:43.379Z,3.20
2024-02-02T00:14:43.394Z,3.13
2024-02-02T00:15:43.388Z,3.08
2024-02-02T00:16:43.363Z,3.04
2024-02-02T00:17:43.391Z,2.98
2024-02-02T00:18:43.484Z,2.95
2024-02-02T00:19:43.386Z,2.90
2024-02-02T00:20:43.320Z,2.87
2024-02-02T00:21:43.325Z,2.86
2024-02-02T00:22:43.304Z,2.81
2024-02-02T00:23:43.292Z,2.80
2024-02-02T00:24:43.281Z,2.80
2024-02-02T00:25:43.319Z,2.80
2024-02-02T00:26:43.295Z,2.79
2024-02-02T00:27:43.258Z,2.77
2024-02-02T00:28:43.233Z,2.79
2024-02-02T00:29:43.217Z,2.79
2024-02-02T00:30:43.252Z,2.80
2024-02-02T00:31:43.250Z,2.76
2024-02-02T00:32:43.370Z,2.79
2024-02-02T00:33:43.248Z,2.81
2024-02-02T00:34:43.446Z,2.80
2024-02-02T00:35:43.155Z,2.84
2024-02-02T00:36:43.189Z,2.81
2024-02-02T00:37:43.157Z,2.84
2024-02-02T00:38:43.172Z,2.83
2024-02-02T00:39:43.141Z,2.84
2024-02-02T00:40:43.105Z,2.84
2024-02-02T00:41:43.110Z,2.83
2024-02-02T00:42:43.078Z,2.84
2024-02-02T00:43:43.072Z,2.83
2024-02-02T00:44:43.096Z,2.84
2024-02-02T00:45:43.095Z,2.80
2024-02-02T00:46:43.047Z,2.83
2024-02-02T00:47:43.053Z,2.81
2024-02-02T00:48:43.141Z,2.81
2024-02-02T00:49:43.156Z,2.80
2024-02-02T00:50:43.011Z,2.80
2024-02-02T00:51:43.013Z,2.80
2024-02-02T00:52:42.995Z,2.77
2024-02-02T00:53:42.971Z,2.77
2024-02-02T00:54:42.966Z,2.79
2024-02-02T00:55:42.973Z,2.77
2024-02-02T00:56:42.984Z,2.74
2024-02-02T00:57:42.981Z,2.77
2024-02-02T00:58:42.929Z,2.77
2024-02-02T00:59:43.077Z,2.76
2024-02-02T01:00:42.969Z,2.76
2024-02-02T01:01:42.882Z,2.76
2024-02-02T01:02:42.892Z,2.76
2024-02-02T01:03:42.926Z,2.76
2024-02-02T01:04:42.926Z,2.76
2024-02-02T01:05:42.885Z,2.73
2024-02-02T01:06:42.899Z,2.74
2024-02-02T01:07:42.828Z,2.76
2024-02-02T01:08:42.808Z,2.76
2024-02-02T01:09:42.809Z,2.79
2024-02-02T01:10:42.809Z,2.74
2024-02-02T01:11:42.799Z,2.77
2024-02-02T01:12:42.768Z,2.80
2024-02-02T01:13:42.771Z,2.80
2024-02-02T01:14:42.737Z,2.79
2024-02-02T01:15:42.781Z,2.80
2024-02-02T01:16:42.953Z,2.84
2024-02-02T01:17:42.728Z,2.81
2024-02-02T01:18:42.798Z,2.86
2024-02-02T01:19:42.725Z,2.86
2024-02-02T01:20:42.717Z,2.89
2024-02-02T01:21:42.670Z,2.87
2024-02-02T01:22:42.661Z,2.89
2024-02-02T01:23:42.649Z,2.89
2024-02-02T01:24:42.643Z,2.90
2024-02-02T01:25:42.636Z,2.92
2024-02-02T01:26:42.597Z,2.95
2024-02-02T01:27:42.621Z,2.95
2024-02-02T01:28:42.580Z,2.97
2024-02-02T01:29:42.696Z,2.97
2024-02-02T01:30:42.580Z,2.99
2024-02-02T01:31:42.560Z,2.99
2024-02-02T01:32:42.647Z,3.01
2024-02-02T01:33:42.744Z,3.01
2024-02-02T01:34:42.753Z,3.01
2024-02-02T01:35:42.551Z,3.02
2024-02-02T01:36:42.499Z,3.07
2024-02-02T01:37:42.512Z,3.05
2024-02-02T01:38:42.498Z,3.10
2024-02-02T01:39:42.527Z,3.08
2024-02-02T01:40:42.516Z,3.13
2024-02-02T01:41:42.446Z,3.12
2024-02-02T01:42:42.440Z,3.13
2024-02-02T01:43:43.271Z,3.16
2024-02-02T01:44:42.416Z,3.19
2024-02-02T01:45:42.441Z,3.22
2024-02-02T01:46:42.402Z,3.26
2024-02-02T01:47:42.429Z,3.30
2024-02-02T01:48:42.502Z,3.34
2024-02-02T01:49:42.448Z,3.35
2024-02-02T01:50:42.432Z,3.41
2024-02-02T01:51:42.379Z,3.41
2024-02-02T01:52:42.326Z,3.42
2024-02-02T01:53:42.340Z,3.44
2024-02-02T01:54:42.334Z,3.44
2024-02-02T01:55:42.317Z,3.45
2024-02-02T01:56:42.326Z,3.49
2024-02-02T01:57:42.355Z,3.49
2024-02-02T01:58:42.854Z,3.49
2024-02-02T01:59:42.260Z,3.50
2024-02-02T02:00:42.324Z,3.49
2024-02-02T02:01:42.262Z,3.50
2024-02-02T02:02:42.221Z,3.53
2024-02-02T02:03:42.344Z,3.53
2024-02-02T02:04:42.277Z,3.54
2024-02-02T02:05:42.258Z,3.53
2024-02-02T02:06:42.230Z,3.57
2024-02-02T02:07:42.176Z,3.54
2024-02-02T02:08:42.806Z,3.56
2024-02-02T02:09:42.167Z,3.56
2024-02-02T02:10:42.179Z,3.53
2024-02-02T02:11:42.143Z,3.54
2024-02-02T02:12:42.151Z,3.59
2024-02-02T02:13:42.115Z,3.60
2024-02-02T02:14:42.377Z,3.63
2024-02-02T02:15:42.151Z,3.62
2024-02-02T02:16:42.088Z,3.63
2024-02-02T02:17:42.133Z,3.64
2024-02-02T02:18:48.164Z,3.64
2024-02-02T02:19:42.160Z,3.64
2024-02-02T02:20:42.079Z,3.64
2024-02-02T02:21:42.049Z,3.67
2024-02-02T02:22:42.025Z,3.68
2024-02-02T02:23:42.069Z,3.67
2024-02-02T02:24:42.019Z,3.68
2024-02-02T02:25:42.024Z,3.72
2024-02-02T02:26:42.016Z,3.71
2024-02-02T02:27:42.013Z,3.74
2024-02-02T02:28:42.769Z,3.77
2024-02-02T02:29:41.978Z,3.75
2024-02-02T02:30:41.971Z,3.77
2024-02-02T02:31:42.068Z,3.74
2024-02-02T02:32:41.991Z,3.78
2024-02-02T02:33:42.849Z,3.78
2024-02-02T02:34:41.947Z,3.80
2024-02-02T02:35:41.890Z,3.78
2024-02-02T02:36:42.737Z,3.77
2024-02-02T02:37:41.887Z,3.77
2024-02-02T02:38:41.897Z,3.78
2024-02-02T02:39:41.882Z,3.78
2024-02-02T02:40:42.128Z,3.78
2024-02-02T02:41:41.840Z,3.81
2024-02-02T02:42:41.806Z,3.80
2024-02-02T02:43:41.817Z,3.80
2024-02-02T02:44:41.821Z,3.78
2024-02-02T02:45:41.869Z,3.80
2024-02-02T02:46:41.792Z,3.78
2024-02-02T02:47:41.836Z,3.77
2024-02-02T02:48:42.051Z,3.78
2024-02-02T02:49:41.981Z,3.78
2024-02-02T02:50:41.746Z,3.78
2024-02-02T02:51:41.764Z,3.77
2024-02-02T02:52:41.725Z,3.77
2024-02-02T02:53:41.724Z,3.75
2024-02-02T02:54:41.710Z,3.75
2024-02-02T02:55:41.739Z,3.74
2024-02-02T02:56:41.687Z,3.71
2024-02-02T02:57:41.725Z,3.71
2024-02-02T02:58:41.710Z,3.72
2024-02-02T02:59:42.363Z,3.71
2024-02-02T03:00:41.833Z,3.74
2024-02-02T03:01:41.646Z,3.72
2024-02-02T03:02:41.625Z,3.72
2024-02-02T03:03:41.695Z,3.72
2024-02-02T03:04:41.606Z,3.70
2024-02-02T03:05:41.683Z,3.71
2024-02-02T03:06:41.679Z,3.70
2024-02-02T03:07:41.599Z,3.70
2024-02-02T03:08:41.592Z,3.71
2024-02-02T03:09:41.556Z,3.68
2024-02-02T03:10:41.659Z,3.68
2024-02-02T03:11:41.546Z,3.68
2024-02-02T03:12:41.537Z,3.70
2024-02-02T03:13:41.524Z,3.67
2024-02-02T03:14:41.495Z,3.68
2024-02-02T03:15:41.614Z,3.70
2024-02-02T03:16:41.513Z,3.71
2024-02-02T03:17:41.540Z,3.72
2024-02-02T03:18:43.565Z,3.74
2024-02-02T03:19:41.557Z,3.72
2024-02-02T03:20:41.484Z,3.71
2024-02-02T03:21:41.481Z,3.71
2024-02-02T03:22:41.479Z,3.72
2024-02-02T03:23:41.421Z,3.74
2024-02-02T03:24:41.399Z,3.75
2024-02-02T03:25:41.411Z,3.75
2024-02-02T03:26:41.390Z,3.75
2024-02-02T03:27:42.558Z,3.77
2024-02-02T03:28:41.343Z,3.77
2024-02-02T03:29:41.338Z,3.77
2024-02-02T03:30:42.287Z,3.74
2024-02-02T03:31:41.624Z,3.75
2024-02-02T03:32:41.437Z,3.80
2024-02-02T03:33:42.404Z,3.77
2024-02-02T03:34:41.363Z,3.77
2024-02-02T03:35:41.317Z,3.77
2024-02-02T03:36:41.250Z,3.78
2024-02-02T03:37:41.305Z,3.78
2024-02-02T03:38:41.344Z,3.80
2024-02-02T03:39:41.269Z,3.80
2024-02-02T03:40:41.223Z,3.80
2024-02-02T03:41:41.234Z,3.80
2024-02-02T03:42:41.185Z,3.78
2024-02-02T03:43:41.201Z,3.80
2024-02-02T03:44:41.194Z,3.81
2024-02-02T03:45:41.263Z,3.81
2024-02-02T03:46:41.179Z,3.84
2024-02-02T03:47:41.274Z,3.82
2024-02-02T03:48:41.209Z,3.82
2024-02-02T03:49:41.184Z,3.84
2024-02-02T03:50:41.149Z,3.81
2024-02-02T03:51:41.110Z,3.82
2024-02-02T03:52:41.116Z,3.82
2024-02-02T03:53:41.109Z,3.81
2024-02-02T03:54:41.078Z,3.82
2024-02-02T03:55:41.095Z,3.84
2024-02-02T03:56:41.077Z,3.82
2024-02-02T03:57:41.068Z,3.84
2024-02-02T03:58:41.067Z,3.84
2024-02-02T03:59:41.096Z,3.84
2024-02-02T04:00:41.146Z,3.84
2024-02-02T04:01:41.027Z,3.84
2024-02-02T04:02:41.083Z,3.88
2024-02-02T04:03:41.229Z,3.88
2024-02-02T04:04:41.019Z,3.88
2024-02-02T04:05:41.130Z,3.90
2024-02-02T04:06:41.105Z,3.92
2024-02-02T04:07:40.969Z,3.92
2024-02-02T04:08:43.918Z,3.92
2024-02-02T04:09:40.955Z,3.90
2024-02-02T04:10:40.993Z,3.93
2024-02-02T04:11:40.922Z,3.92
2024-02-02T04:12:40.930Z,3.93
2024-02-02T04:13:40.894Z,3.93
2024-02-02T04:14:40.880Z,3.96
2024-02-02T04:15:41.278Z,3.96
2024-02-02T04:16:40.867Z,3.96
2024-02-02T04:17:40.875Z,3.93
2024-02-02T04:18:40.970Z,3.98
2024-02-02T04:19:40.879Z,3.98
2024-02-02T04:20:41.771Z,3.99
2024-02-02T04:21:40.824Z,3.99
2024-02-02T04:22:40.794Z,4.02
2024-02-02T04:23:40.782Z,4.00
2024-02-02T04:24:40.880Z,4.04
2024-02-02T04:25:40.777Z,4.02
2024-02-02T04:26:40.795Z,4.06
2024-02-02T04:27:40.810Z,4.06
2024-02-02T04:28:40.752Z,4.06
2024-02-02T04:29:40.719Z,4.08
2024-02-02T04:30:40.765Z,4.07
2024-02-02T04:31:40.724Z,4.11
2024-02-02T04:32:40.793Z,4.08
2024-02-02T04:33:40.861Z,4.10
2024-02-02T04:34:41.148Z,4.13
2024-02-02T04:35:40.664Z,4.11
2024-02-02T04:36:40.738Z,4.16
2024-02-02T04:37:40.642Z,4.16
2024-02-02T04:38:40.675Z,4.16
2024-02-02T04:39:41.272Z,4.14
2024-02-02T04:40:40.646Z,4.17
2024-02-02T04:41:40.639Z,4.16
2024-02-02T04:42:40.612Z,4.16
2024-02-02T04:43:40.649Z,4.16
2024-02-02T04:44:40.622Z,4.16
2024-02-02T04:45:40.633Z,4.17
2024-02-02T04:46:40.566Z,4.16
2024-02-02T04:47:40.563Z,4.16
2024-02-02T04:48:40.663Z,4.17
2024-02-02T04:49:40.611Z,4.18
2024-02-02T04:50:40.519Z,4.16
2024-02-02T04:51:40.596Z,4.17
2024-02-02T04:52:40.477Z,4.18
2024-02-02T04:53:40.486Z,4.18
2024-02-02T04:54:40.497Z,4.17
2024-02-02T04:55:40.490Z,4.18
2024-02-02T04:56:40.440Z,4.18
2024-02-02T04:57:40.754Z,4.18
2024-02-02T04:58:40.444Z,4.18
2024-02-02T04:59:40.464Z,4.18
2024-02-02T05:00:40.454Z,4.18
2024-02-02T05:01:41.294Z,4.17
2024-02-02T05:02:40.437Z,4.18
2024-02-02T05:03:40.402Z,4.16
2024-02-02T05:04:40.399Z,4.18
2024-02-02T05:05:40.351Z,4.17
2024-02-02T05:06:40.432Z,4.20
2024-02-02T05:07:40.376Z,4.21
2024-02-02T05:08:40.354Z,4.24
2024-02-02T05:09:40.364Z,4.21
2024-02-02T05:10:40.300Z,4.26
2024-02-02T05:11:40.295Z,4.26
2024-02-02T05:12:40.464Z,4.26
2024-02-02T05:13:40.289Z,4.26
2024-02-02T05:14:40.793Z,4.28
2024-02-02T05:15:40.333Z,4.28
2024-02-02T05:16:40.257Z,4.29
2024-02-02T05:17:40.870Z,4.31
2024-02-02T05:18:40.377Z,4.31
2024-02-02T05:19:40.367Z,4.31
2024-02-02T05:20:40.433Z,4.31
2024-02-02T05:21:40.261Z,4.32
2024-02-02T05:22:40.821Z,4.34
2024-02-02T05:23:47.142Z,4.32
2024-02-02T05:24:45.361Z,4.32
2024-02-02T05:25:40.236Z,4.32
2024-02-02T05:26:40.194Z,4.34
2024-02-02T05:27:40.230Z,4.31
2024-02-02T05:28:40.800Z,4.34
2024-02-02T05:29:40.166Z,4.35
2024-02-02T05:30:40.120Z,4.31
2024-02-02T05:31:40.144Z,4.34
2024-02-02T05:32:40.169Z,4.34
2024-02-02T05:33:40.262Z,4.32
2024-02-02T05:34:40.261Z,4.35
2024-02-02T05:35:40.164Z,4.32
2024-02-02T05:36:40.089Z,4.34
2024-02-02T05:37:40.113Z,4.31
2024-02-02T05:38:40.045Z,4.32
2024-02-02T05:39:40.089Z,4.32
2024-02-02T05:40:40.028Z,4.34
2024-02-02T05:41:40.015Z,4.32
2024-02-02T05:42:40.045Z,4.29
2024-02-02T05:43:39.997Z,4.29
2024-02-02T05:44:39.945Z,4.29
2024-02-02T05:45:39.956Z,4.29
2024-02-02T05:46:40.266Z,4.28
2024-02-02T05:47:39.980Z,4.28
2024-02-02T05:48:40.015Z,4.28
2024-02-02T05:49:40.162Z,4.29
2024-02-02T05:50:39.934Z,4.29
2024-02-02T05:51:40.033Z,4.29
2024-02-02T05:52:39.889Z,4.29
2024-02-02T05:53:39.859Z,4.31
2024-02-02T05:54:39.899Z,4.29
2024-02-02T05:55:42.637Z,4.28
2024-02-02T05:56:39.852Z,4.29
2024-02-02T05:57:39.902Z,4.26
2024-02-02T05:58:39.821Z,4.29
2024-02-02T05:59:39.849Z,4.31
2024-02-02T06:00:39.871Z,4.32
2024-02-02T06:01:39.900Z,4.31
2024-02-02T06:02:39.794Z,4.31
2024-02-02T06:03:40.021Z,4.34
2024-02-02T06:04:40.008Z,4.34
2024-02-02T06:05:39.758Z,4.34
2024-02-02T06:06:39.901Z,4.32
2024-02-02T06:07:39.743Z,4.35
2024-02-02T06:08:39.713Z,4.35
2024-02-02T06:09:39.896Z,4.36
2024-02-02T06:10:39.721Z,4.35
2024-02-02T06:11:39.688Z,4.36
2024-02-02T06:12:39.675Z,4.36
2024-02-02T06:13:39.667Z,4.35
2024-02-02T06:14:39.647Z,4.38
2024-02-02T06:15:39.775Z,4.35
2024-02-02T06:16:39.657Z,4.35
2024-02-02T06:17:39.668Z,4.34
2024-02-02T06:18:39.726Z,4.35
2024-02-02T06:19:39.666Z,4.34
2024-02-02T06:20:39.630Z,4.34
2024-02-02T06:21:39.642Z,4.35
2024-02-02T06:22:39.574Z,4.34
2024-02-02T06:23:39.566Z,4.32
2024-02-02T06:24:39.851Z,4.35
2024-02-02T06:25:39.567Z,4.36
2024-02-02T06:26:39.529Z,4.36
2024-02-02T06:27:39.564Z,4.35
2024-02-02T06:28:39.528Z,4.35
2024-02-02T06:29:39.496Z,4.35
2024-02-02T06:30:39.575Z,4.36
2024-02-02T06:31:39.653Z,4.36
2024-02-02T06:32:39.489Z,4.36
2024-02-02T06:33:39.527Z,4.35
2024-02-02T06:34:39.472Z,4.38
2024-02-02T06:35:39.476Z,4.38
2024-02-02T06:36:39.561Z,4.43
2024-02-02T06:37:39.467Z,4.42
2024-02-02T06:38:39.506Z,4.43
2024-02-02T06:39:39.467Z,4.44
2024-02-02T06:40:39.421Z,4.49
2024-02-02T06:41:39.409Z,4.47
2024-02-02T06:42:39.424Z,4.47
2024-02-02T06:43:39.344Z,4.49
2024-02-02T06:44:39.362Z,4.51
2024-02-02T06:45:39.444Z,4.51
2024-02-02T06:46:39.363Z,4.54
2024-02-02T06:47:39.341Z,4.54
2024-02-02T06:48:39.381Z,4.57
2024-02-02T06:49:39.296Z,4.57
2024-02-02T06:50:39.288Z,4.56
2024-02-02T06:51:39.387Z,4.57
2024-02-02T06:52:39.286Z,4.56
2024-02-02T06:53:39.270Z,4.57
2024-02-02T06:54:39.420Z,4.57
2024-02-02T06:55:39.363Z,4.61
2024-02-02T06:56:39.224Z,4.59
2024-02-02T06:57:39.217Z,4.64
2024-02-02T06:58:39.203Z,4.64
2024-02-02T06:59:39.258Z,4.67
2024-02-02T07:00:39.229Z,4.65
2024-02-02T07:01:39.229Z,4.65
2024-02-02T07:02:39.163Z,4.68
2024-02-02T07:03:39.258Z,4.68
2024-02-02T07:04:39.229Z,4.71
2024-02-02T07:05:39.193Z,4.69
2024-02-02T07:06:39.224Z,4.72
2024-02-02T07:07:39.198Z,4.71
2024-02-02T07:08:39.106Z,4.71
2024-02-02T07:09:39.192Z,4.72
2024-02-02T07:10:39.178Z,4.72
2024-02-02T07:11:39.078Z,4.74
2024-02-02T07:12:39.204Z,4.74
2024-02-02T07:13:39.046Z,4.77
2024-02-02T07:14:39.102Z,4.75
2024-02-02T07:15:39.107Z,4.75
2024-02-02T07:16:39.050Z,4.75
2024-02-02T07:17:39.042Z,4.75
2024-02-02T07:18:39.192Z,4.75
2024-02-02T07:19:39.121Z,4.77
2024-02-02T07:20:39.782Z,4.77
2024-02-02T07:21:39.092Z,4.75
2024-02-02T07:22:38.997Z,4.77
2024-02-02T07:23:38.935Z,4.79
2024-02-02T07:24:39.024Z,4.77
2024-02-02T07:25:38.949Z,4.79
2024-02-02T07:26:38.937Z,4.77
2024-02-02T07:27:38.982Z,4.77
2024-02-02T07:28:38.911Z,4.79
2024-02-02T07:29:38.855Z,4.75
2024-02-02T07:30:38.949Z,4.79
2024-02-02T07:31:38.947Z,4.79
2024-02-02T07:32:38.955Z,4.79
2024-02-02T07:33:39.042Z,4.77
2024-02-02T07:34:39.009Z,4.75
2024-02-02T07:35:38.844Z,4.75
2024-02-02T07:36:39.052Z,4.77
2024-02-02T07:37:38.896Z,4.74
2024-02-02T07:38:38.780Z,4.77
2024-02-02T07:39:38.795Z,4.74
2024-02-02T07:40:38.822Z,4.75
2024-02-02T07:41:38.754Z,4.74
2024-02-02T07:42:47.788Z,4.75
2024-02-02T07:43:38.825Z,4.77
2024-02-02T07:44:38.742Z,4.77
2024-02-02T07:45:38.737Z,4.74
2024-02-02T07:46:38.733Z,4.79
2024-02-02T07:47:38.712Z,4.79
2024-02-02T07:48:38.897Z,4.80
2024-02-02T07:49:38.952Z,4.79
2024-02-02T07:50:38.685Z,4.83
2024-02-02T07:51:39.109Z,4.80
2024-02-02T07:52:38.715Z,4.83
2024-02-02T07:53:38.633Z,4.80
2024-02-02T07:54:38.991Z,4.86
2024-02-02T07:55:38.626Z,4.86
2024-02-02T07:56:38.652Z,4.86
2024-02-02T07:57:38.721Z,4.86
2024-02-02T07:58:38.668Z,4.88
2024-02-02T07:59:38.631Z,4.90
2024-02-02T08:00:38.713Z,4.91
2024-02-02T08:01:38.695Z,4.94
2024-02-02T08:02:38.638Z,4.94
2024-02-02T08:03:38.802Z,4.96
2024-02-02T08:04:38.711Z,4.93
2024-02-02T08:05:38.608Z,4.96
2024-02-02T08:06:38.629Z,4.96
2024-02-02T08:07:39.294Z,4.94
2024-02-02T08:08:38.531Z,4.96
2024-02-02T08:09:38.589Z,5.01
2024-02-02T08:10:38.558Z,5.01
2024-02-02T08:11:38.446Z,5.02
2024-02-02T08:12:38.576Z,5.02
2024-02-02T08:13:38.443Z,5.02
2024-02-02T08:14:38.414Z,5.04
2024-02-02T08:15:38.541Z,5.02
2024-02-02T08:16:38.536Z,5.04
2024-02-02T08:17:38.427Z,5.05
2024-02-02T08:18:38.551Z,5.04
2024-02-02T08:19:39.170Z,5.04
2024-02-02T08:20:38.348Z,5.04
2024-02-02T08:21:38.418Z,5.04
2024-02-02T08:22:38.325Z,5.04
2024-02-02T08:23:38.313Z,5.02
2024-02-02T08:24:38.342Z,5.02
2024-02-02T08:25:38.302Z,5.02
2024-02-02T08:26:38.340Z,5.06
2024-02-02T08:27:38.333Z,5.06
2024-02-02T08:28:45.572Z,5.08
2024-02-02T08:29:38.309Z,5.11
2024-02-02T08:30:38.380Z,5.08
2024-02-02T08:31:38.260Z,5.08
2024-02-02T08:32:38.292Z,5.06
2024-02-02T08:33:38.249Z,5.02
2024-02-02T08:34:38.349Z,5.04
2024-02-02T08:35:38.217Z,5.02
2024-02-02T08:36:38.250Z,5.06
2024-02-02T08:37:38.174Z,5.05
2024-02-02T08:38:38.168Z,5.05
2024-02-02T08:39:38.241Z,5.04
2024-02-02T08:40:38.170Z,5.04
2024-02-02T08:41:38.225Z,5.02
2024-02-02T08:42:38.263Z,5.05
2024-02-02T08:43:38.107Z,5.04
2024-02-02T08:44:38.111Z,5.08
2024-02-02T08:45:38.141Z,5.08
2024-02-02T08:46:38.137Z,5.06
2024-02-02T08:47:38.137Z,5.06
2024-02-02T08:48:38.125Z,5.09
2024-02-02T08:49:38.100Z,5.06
2024-02-02T08:50:38.126Z,5.08
2024-02-02T08:51:39.360Z,5.06
2024-02-02T08:52:38.051Z,5.04
2024-02-02T08:53:38.008Z,5.04
2024-02-02T08:54:38.739Z,5.11
2024-02-02T08:55:38.008Z,5.12
2024-02-02T08:56:37.995Z,5.09
2024-02-02T08:57:38.058Z,5.06
2024-02-02T08:58:39.209Z,5.08
2024-02-02T08:59:38.006Z,5.08
2024-02-02T09:00:38.016Z,5.08
2024-02-02T09:01:38.041Z,5.09
2024-02-02T09:02:38.045Z,5.08
2024-02-02T09:03:38.051Z,5.09
2024-02-02T09:04:37.919Z,5.11
2024-02-02T09:05:37.905Z,5.11
2024-02-02T09:06:38.013Z,5.09
2024-02-02T09:07:37.873Z,5.14
2024-02-02T09:08:37.859Z,5.12
2024-02-02T09:09:37.926Z,5.08
2024-02-02T09:10:37.928Z,5.08
2024-02-02T09:11:37.903Z,5.11
2024-02-02T09:12:37.891Z,5.12
2024-02-02T09:13:38.810Z,5.12
2024-02-02T09:14:37.799Z,5.15
2024-02-02T09:15:37.829Z,5.15
2024-02-02T09:16:37.792Z,5.17
2024-02-02T09:17:37.813Z,5.19
2024-02-02T09:18:37.842Z,5.35
2024-02-02T09:19:37.847Z,5.55
2024-02-02T09:20:37.718Z,5.62
2024-02-02T09:21:37.827Z,5.80
2024-02-02T09:22:37.739Z,5.87
2024-02-02T09:23:37.705Z,5.95
2024-02-02T09:24:37.764Z,6.03
2024-02-02T09:25:37.736Z,6.14
2024-02-02T09:26:37.674Z,6.19
2024-02-02T09:27:37.790Z,6.20
2024-02-02T09:28:37.685Z,6.10
2024-02-02T09:29:37.889Z,5.98
2024-02-02T09:30:37.662Z,6.10
2024-02-02T09:31:37.682Z,6.27
2024-02-02T09:32:37.673Z,6.27
2024-02-02T09:33:37.713Z,6.45
2024-02-02T09:34:37.830Z,6.43
2024-02-02T09:35:37.583Z,6.42
2024-02-02T09:36:37.844Z,6.46
2024-02-02T09:37:37.549Z,6.55
2024-02-02T09:38:37.568Z,6.63
2024-02-02T09:39:37.690Z,6.65
2024-02-02T09:40:37.566Z,6.78
2024-02-02T09:41:37.510Z,6.76
2024-02-02T09:42:38.402Z,6.91
2024-02-02T09:43:37.499Z,6.96
2024-02-02T09:44:37.476Z,7.00
2024-02-02T09:45:37.599Z,7.01
2024-02-02T09:46:37.512Z,6.89
2024-02-02T09:47:37.586Z,6.87
2024-02-02T09:48:37.618Z,6.86
2024-02-02T09:49:37.644Z,7.00
2024-02-02T09:50:37.500Z,6.99
2024-02-02T09:51:37.439Z,7.05
2024-02-02T09:52:37.445Z,7.14
2024-02-02T09:53:37.412Z,7.12
2024-02-02T09:54:37.471Z,7.21
2024-02-02T09:55:37.354Z,7.26
2024-02-02T09:56:37.345Z,7.21
2024-02-02T09:57:37.350Z,7.18
2024-02-02T09:58:37.363Z,7.27
2024-02-02T09:59:37.366Z,7.26
2024-02-02T10:00:37.399Z,7.34
2024-02-02T10:01:37.329Z,7.50
2024-02-02T10:02:37.308Z,7.50
2024-02-02T10:03:37.418Z,7.29
2024-02-02T10:04:37.331Z,7.12
2024-02-02T10:05:37.279Z,7.05
2024-02-02T10:06:37.392Z,7.05
2024-02-02T10:07:37.248Z,7.08
2024-02-02T10:08:37.261Z,7.29
2024-02-02T10:09:37.285Z,7.51
2024-02-02T10:10:37.260Z,7.67
2024-02-02T10:11:37.226Z,7.81
2024-02-02T10:12:37.199Z,7.85
2024-02-02T10:13:37.200Z,7.85
2024-02-02T10:14:37.184Z,7.84
2024-02-02T10:15:37.220Z,7.73
2024-02-02T10:16:37.159Z,7.77
2024-02-02T10:17:37.386Z,7.76
2024-02-02T10:18:37.280Z,7.57
2024-02-02T10:19:37.265Z,7.51
2024-02-02T10:20:37.111Z,7.55
2024-02-02T10:21:37.138Z,7.54
2024-02-02T10:22:37.383Z,7.41
2024-02-02T10:23:37.121Z,7.44
2024-02-02T10:24:37.114Z,7.42
2024-02-02T10:25:37.308Z,7.48
2024-02-02T10:26:37.049Z,7.52
2024-02-02T10:27:37.067Z,7.55
2024-02-02T10:28:37.028Z,7.54
2024-02-02T10:29:37.022Z,7.55
2024-02-02T10:30:37.154Z,7.63
2024-02-02T10:31:37.082Z,7.73
2024-02-02T10:32:37.127Z,7.69
2024-02-02T10:33:37.144Z,7.76
2024-02-02T10:34:38.080Z,7.92
2024-02-02T10:35:37.007Z,7.73
2024-02-02T10:36:37.003Z,7.76
2024-02-02T10:37:38.684Z,7.84
2024-02-02T10:38:36.977Z,7.74
2024-02-02T10:39:36.977Z,7.66
2024-02-02T10:40:36.915Z,7.63
2024-02-02T10:41:38.865Z,7.67
2024-02-02T10:42:36.976Z,7.74
2024-02-02T10:43:36.935Z,7.82
2024-02-02T11:18:06.542Z,8.24
2024-02-02T11:19:07.366Z,8.25
2024-02-02T11:20:08.112Z,8.31
2024-02-02T11:21:07.274Z,8.29
2024-02-02T11:22:07.300Z,8.36
2024-02-02T11:23:07.241Z,8.32
2024-02-02T11:24:07.277Z,8.29
2024-02-02T11:25:07.219Z,8.39
2024-02-02T11:26:07.291Z,8.43
2024-02-02T11:27:07.211Z,8.54
2024-02-02T11:28:07.185Z,8.64
2024-02-02T11:29:07.150Z,8.63
2024-02-02T11:30:07.752Z,8.60
2024-02-02T11:31:07.157Z,8.58
2024-02-02T11:32:07.147Z,8.61
2024-02-02T11:33:07.298Z,8.47
2024-02-02T11:34:07.171Z,8.60
2024-02-02T11:35:07.089Z,8.60
2024-02-02T11:36:07.215Z,8.65
2024-02-02T11:37:07.100Z,8.65
2024-02-02T11:38:07.106Z,8.68
2024-02-02T11:39:07.098Z,8.65
2024-02-02T11:40:07.090Z,8.64
2024-02-02T11:41:07.041Z,8.60
2024-02-02T11:42:07.119Z,8.60
2024-02-02T11:43:07.014Z,8.63
2024-02-02T11:44:07.004Z,8.61
2024-02-02T11:45:07.091Z,8.55
2024-02-02T11:46:09.360Z,8.49
2024-02-02T11:47:06.983Z,8.52
2024-02-02T11:48:07.087Z,8.54
2024-02-02T11:49:07.461Z,8.52
2024-02-02T11:50:07.036Z,8.54
2024-02-02T11:51:06.962Z,8.61
2024-02-02T11:52:06.956Z,8.70
2024-02-02T11:53:06.936Z,8.82
2024-02-02T11:54:06.949Z,8.89
2024-02-02T11:55:06.930Z,8.89
2024-02-02T11:56:06.906Z,8.88
2024-02-02T11:57:06.893Z,8.97
2024-02-02T11:58:06.875Z,9.06
2024-02-02T11:59:06.862Z,9.08
2024-02-02T12:00:07.001Z,9.08
2024-02-02T12:01:06.855Z,8.96
2024-02-02T12:02:06.833Z,9.01
2024-02-02T12:03:06.859Z,9.06
2024-02-02T12:04:06.794Z,9.15
2024-02-02T12:05:06.989Z,9.06
2024-02-02T12:06:06.842Z,9.04
2024-02-02T12:07:06.864Z,9.06
2024-02-02T12:08:06.788Z,9.08
2024-02-02T12:09:06.857Z,9.23
2024-02-02T12:10:06.853Z,9.19
2024-02-02T12:11:06.864Z,9.16
2024-02-02T12:12:06.797Z,9.08
2024-02-02T12:13:06.707Z,9.16
2024-02-02T12:14:06.808Z,9.24
2024-02-02T12:15:06.829Z,9.24
2024-02-02T12:16:06.706Z,9.35
2024-02-02T12:17:06.743Z,9.38
2024-02-02T12:18:06.766Z,9.44
2024-02-02T12:19:06.776Z,9.58
2024-02-02T12:20:06.755Z,9.53
2024-02-02T12:21:06.676Z,9.52
2024-02-02T12:22:06.648Z,9.41
2024-02-02T12:23:06.605Z,9.24
2024-02-02T12:24:06.686Z,9.24
2024-02-02T12:25:06.627Z,9.26
2024-02-02T12:26:06.602Z,9.38
2024-02-02T12:27:06.591Z,9.42
2024-02-02T12:28:06.587Z,9.44
2024-02-02T12:29:06.543Z,9.52
2024-02-02T12:30:06.651Z,9.50
2024-02-02T12:31:06.550Z,9.49
2024-02-02T12:32:06.595Z,9.48
2024-02-02T12:33:06.588Z,9.42
2024-02-02T12:34:06.638Z,9.41
2024-02-02T12:35:06.779Z,9.41
2024-02-02T12:36:10.254Z,9.34
2024-02-02T12:37:06.498Z,9.31
2024-02-02T12:38:06.459Z,9.35
2024-02-02T12:39:06.701Z,9.34
2024-02-02T12:40:06.438Z,9.38
2024-02-02T12:41:06.645Z,9.48
2024-02-02T12:42:07.616Z,9.48
2024-02-02T12:43:06.391Z,9.52
2024-02-02T12:44:06.546Z,9.53
2024-02-02T12:45:06.409Z,9.56
2024-02-02T12:46:06.373Z,9.58
2024-02-02T12:47:06.373Z,9.59
2024-02-02T12:48:06.602Z,9.56
2024-02-02T12:49:06.552Z,9.63
2024-02-02T12:50:06.471Z,9.67
2024-02-02T12:51:06.363Z,9.68
2024-02-02T12:52:06.310Z,9.73
2024-02-02T12:53:06.326Z,9.73
2024-02-02T12:54:06.404Z,9.73
2024-02-02T12:55:06.273Z,9.74
2024-02-02T12:56:06.309Z,9.81
2024-02-02T12:57:06.317Z,9.80
2024-02-02T12:58:06.256Z,9.89
2024-02-02T12:59:06.247Z,10.01
2024-02-02T13:00:06.265Z,10.04
2024-02-02T13:01:06.313Z,10.04
2024-02-02T13:02:06.216Z,9.91
2024-02-02T13:03:06.233Z,9.93
2024-02-02T13:04:06.330Z,9.96
2024-02-02T13:05:06.202Z,10.11
2024-02-02T13:06:06.182Z,10.11
2024-02-02T13:07:06.331Z,10.06
2024-02-02T13:08:06.173Z,10.13
2024-02-02T13:09:06.162Z,10.14
2024-02-02T13:10:06.221Z,10.16
2024-02-02T13:11:06.269Z,10.07
2024-02-02T13:12:06.148Z,10.14
2024-02-02T13:13:06.136Z,10.18
2024-02-02T13:14:06.155Z,10.22
2024-02-02T13:15:06.106Z,10.20
2024-02-02T13:16:06.071Z,10.25
2024-02-02T13:17:06.078Z,10.17
2024-02-02T13:18:06.174Z,10.13
2024-02-02T13:19:07.574Z,10.14
2024-02-02T13:20:06.021Z,10.20
2024-02-02T13:21:06.045Z,10.24
2024-02-02T13:22:07.532Z,10.36
2024-02-02T13:23:06.037Z,10.32
2024-02-02T13:24:06.029Z,10.31
2024-02-02T13:25:05.960Z,10.35
2024-02-02T13:26:05.967Z,10.34
2024-02-02T13:27:06.002Z,10.22
2024-02-02T13:28:05.956Z,10.13
2024-02-02T13:29:06.954Z,10.17
2024-02-02T13:30:06.027Z,10.25
2024-02-02T13:31:06.170Z,10.26
2024-02-02T13:32:05.910Z,10.36
2024-02-02T13:33:05.911Z,10.31
2024-02-02T13:34:06.294Z,10.28
2024-02-02T13:35:05.980Z,10.43
2024-02-02T13:36:05.918Z,10.47
2024-02-02T13:37:05.866Z,10.55
2024-02-02T13:38:05.920Z,10.83
2024-02-02T13:39:05.873Z,11.16
2024-02-02T13:40:05.827Z,11.31
2024-02-02T13:41:05.972Z,11.70
2024-02-02T13:42:05.799Z,11.77
2024-02-02T13:43:05.865Z,11.72
2024-02-02T13:44:06.091Z,12.07
2024-02-02T13:45:05.888Z,12.11
2024-02-02T13:46:05.849Z,11.79
2024-02-02T13:47:05.823Z,11.21
2024-02-02T13:48:06.638Z,10.99
2024-02-02T13:49:05.933Z,11.17
2024-02-02T13:50:06.603Z,11.24